createdAt,value
2022-09-16T00:00:50.067Z,96941.06
2022-09-16T00:03:17.561Z,96938.44
2022-09-16T00:05:46.190Z,96938.22
2022-09-16T00:08:13.416Z,96938.31
2022-09-16T00:10:40.100Z,96932.94
2022-09-16T00:13:07.269Z,96926.91
2022-09-16T00:15:33.739Z,96926.91
2022-09-16T00:18:00.164Z,96925.94
2022-09-16T00:20:27.399Z,96927.09
2022-09-16T00:22:54.475Z,96931.06
2022-09-16T00:25:20.918Z,96929.53
2022-09-16T00:27:49.349Z,96931.50
2022-09-16T00:30:16.052Z,96932.38
2022-09-16T00:32:42.505Z,96930.28
2022-09-16T00:35:09.040Z,96929.09
2022-09-16T00:37:36.069Z,96919.88
2022-09-16T00:40:03.174Z,96923.59
2022-09-16T00:42:29.633Z,96917.78
2022-09-16T00:44:57.969Z,96921.09
2022-09-16T00:47:33.191Z,96923.59
2022-09-16T00:50:08.640Z,96921.53
2022-09-16T00:52:35.987Z,96923.41
2022-09-16T00:55:08.080Z,96920.97
2022-09-16T00:57:35.606Z,96923.06
2022-09-16T01:00:04.274Z,96933.91
2022-09-16T01:02:31.299Z,96923.50
2022-09-16T01:05:03.530Z,96921.63
2022-09-16T01:07:45.592Z,96927.44
2022-09-16T01:10:20.705Z,96921.09
2022-09-16T01:12:54.839Z,96910.91
2022-09-16T01:15:29.364Z,96910.97
2022-09-16T01:18:28.341Z,96908.56
2022-09-16T01:21:00.864Z,96907.03
2022-09-16T01:24:04.131Z,96913.31
2022-09-16T01:26:55.510Z,96910.00
2022-09-16T01:29:40.137Z,96906.81
2022-09-16T01:32:15.569Z,96913.06
2022-09-16T01:34:58.378Z,96904.97
2022-09-16T01:37:33.548Z,96916.25
2022-09-16T01:40:05.555Z,96911.97
2022-09-16T01:42:47.566Z,96921.09
2022-09-16T01:45:23.078Z,96912.88
2022-09-16T01:48:19.603Z,96914.28
2022-09-16T01:51:12.834Z,96909.00
2022-09-16T01:53:47.736Z,96917.88
2022-09-16T01:56:22.730Z,96919.97
2022-09-16T01:59:00.037Z,96912.41
2022-09-16T02:01:40.876Z,96909.31
2022-09-16T02:04:13.783Z,96909.97
2022-09-16T02:06:43.663Z,96907.66
2022-09-16T02:09:16.651Z,96905.69
2022-09-16T02:11:47.539Z,96905.63
2022-09-16T02:14:19.379Z,96911.41
2022-09-16T02:17:09.569Z,96910.00
2022-09-16T02:19:44.296Z,96915.69
2022-09-16T02:22:17.782Z,96907.59
2022-09-16T02:24:48.135Z,96910.88
2022-09-16T02:27:21.620Z,96905.94
2022-09-16T02:29:52.860Z,96911.31
2022-09-16T02:32:22.273Z,96905.94
2022-09-16T02:34:51.294Z,96896.84
2022-09-16T02:37:21.544Z,96903.06
2022-09-16T02:39:54.855Z,96905.81
2022-09-16T02:42:21.436Z,96913.72
2022-09-16T02:44:47.915Z,96914.16
2022-09-16T02:47:32.634Z,96912.63
2022-09-16T02:50:25.336Z,96910.31
2022-09-16T02:53:31.431Z,96918.00
2022-09-16T02:56:07.444Z,96912.31
2022-09-16T02:58:33.970Z,96911.19
2022-09-16T03:01:01.066Z,96918.63
2022-09-16T03:03:27.937Z,96919.66
2022-09-16T03:06:22.866Z,96917.22
2022-09-16T03:08:50.626Z,96921.19
2022-09-16T03:11:38.619Z,96913.28
2022-09-16T03:14:33.278Z,96918.56
2022-09-16T03:17:27.419Z,96912.53
2022-09-16T03:20:07.540Z,96912.53
2022-09-16T03:23:11.168Z,96914.41
2022-09-16T03:26:02.869Z,96915.69
2022-09-16T03:28:41.820Z,96913.53
2022-09-16T03:31:11.810Z,96902.66
2022-09-16T03:33:47.534Z,96911.66
2022-09-16T03:36:18.533Z,96918.44
2022-09-16T03:38:45.167Z,96910.22
2022-09-16T03:41:13.564Z,96917.78
2022-09-16T03:43:40.204Z,96910.31
2022-09-16T03:46:11.677Z,96918.03
2022-09-16T03:48:38.126Z,96918.47
2022-09-16T03:51:04.581Z,96918.47
2022-09-16T03:53:31.023Z,96913.50
2022-09-16T03:55:57.411Z,96907.16
2022-09-16T03:58:23.806Z,96908.00
2022-09-16T04:00:51.032Z,96913.75
2022-09-16T04:03:17.918Z,96909.53
2022-09-16T04:05:44.365Z,96919.66
2022-09-16T04:08:10.871Z,96912.53
2022-09-16T04:10:37.266Z,96914.19
2022-09-16T04:13:03.751Z,96911.19
2022-09-16T04:15:30.222Z,96909.53
2022-09-16T04:17:56.639Z,96910.56
2022-09-16T04:20:23.948Z,96917.38
2022-09-16T04:22:50.380Z,96914.38
2022-09-16T04:25:16.781Z,96896.19
2022-09-16T04:27:43.234Z,96908.47
2022-09-16T04:30:10.550Z,96914.19
2022-09-16T04:32:36.959Z,96909.53
2022-09-16T04:35:03.481Z,96913.94
2022-09-16T04:37:31.662Z,96907.03
2022-09-16T04:40:01.086Z,96917.03
2022-09-16T04:42:30.739Z,96911.75
2022-09-16T04:44:57.895Z,96909.31
2022-09-16T04:47:24.362Z,96911.75
2022-09-16T04:49:51.067Z,96908.56
2022-09-16T04:52:17.662Z,96910.84
2022-09-16T04:54:44.068Z,96910.53
2022-09-16T04:57:10.486Z,96903.44
2022-09-16T04:59:36.983Z,96905.06
2022-09-16T05:02:03.473Z,96899.88
2022-09-16T05:04:29.867Z,96903.53
2022-09-16T05:06:56.337Z,96903.97
2022-09-16T05:09:22.817Z,96906.25
2022-09-16T05:11:49.367Z,96909.22
2022-09-16T05:14:18.321Z,96905.06
2022-09-16T05:16:45.477Z,96910.56
2022-09-16T05:19:13.465Z,96913.31
2022-09-16T05:21:40.810Z,96918.09
2022-09-16T05:24:09.398Z,96915.03
2022-09-16T05:26:38.696Z,96908.44
2022-09-16T05:29:08.542Z,96909.66
2022-09-16T05:31:37.168Z,96914.69
2022-09-16T05:34:23.304Z,96924.16
2022-09-16T05:36:50.889Z,96927.34
2022-09-16T05:39:25.855Z,96922.28
2022-09-16T05:41:55.541Z,96924.13
2022-09-16T05:44:22.847Z,96925.38
2022-09-16T05:46:49.341Z,96929.31
2022-09-16T05:49:20.653Z,96932.16
2022-09-16T05:51:48.506Z,96924.59
2022-09-16T05:54:15.582Z,96918.44
2022-09-16T05:56:42.551Z,96915.47
2022-09-16T05:59:11.527Z,96910.19
2022-09-16T06:01:38.580Z,96918.53
2022-09-16T06:04:07.770Z,96916.84
2022-09-16T06:06:38.768Z,96911.03
2022-09-16T06:09:08.822Z,96919.19
2022-09-16T06:11:41.447Z,96921.13
2022-09-16T06:14:08.736Z,96925.88
2022-09-16T06:16:36.219Z,96924.38
2022-09-16T06:19:06.178Z,96914.59
2022-09-16T06:21:32.755Z,96903.78
2022-09-16T06:23:59.208Z,96903.03
2022-09-16T06:26:26.948Z,96898.44
2022-09-16T06:28:54.322Z,96891.72
2022-09-16T06:31:26.325Z,96902.78
2022-09-16T06:33:53.924Z,96900.97
2022-09-16T06:36:22.816Z,96912.34
2022-09-16T06:38:50.071Z,96904.84
2022-09-16T06:41:17.806Z,96918.50
2022-09-16T06:43:44.794Z,96913.41
2022-09-16T06:46:17.385Z,96901.81
2022-09-16T06:48:46.437Z,96895.31
2022-09-16T06:51:17.275Z,96892.63
2022-09-16T06:53:45.330Z,96904.38
2022-09-16T06:56:13.879Z,96905.09
2022-09-16T06:58:42.600Z,96898.94
2022-09-16T07:01:12.128Z,96898.09
2022-09-16T07:03:41.055Z,96911.13
2022-09-16T07:06:08.595Z,96907.72
2022-09-16T07:08:36.699Z,96913.63
2022-09-16T07:11:12.337Z,96917.06
2022-09-16T07:13:39.758Z,96926.63
2022-09-16T07:16:13.233Z,96919.72
2022-09-16T07:18:40.948Z,96920.63
2022-09-16T07:21:17.740Z,96920.44
2022-09-16T07:23:45.797Z,96922.59
2022-09-16T07:26:14.852Z,96909.78
2022-09-16T07:28:43.229Z,96918.75
2022-09-16T07:31:12.482Z,96918.69
2022-09-16T07:33:41.356Z,96928.38
2022-09-16T07:36:09.913Z,96929.19
2022-09-16T07:38:36.444Z,96924.25
2022-09-16T07:41:11.319Z,96923.34
2022-09-16T07:43:40.303Z,96931.81
2022-09-16T07:46:08.406Z,96937.50
2022-09-16T07:48:35.662Z,96925.28
2022-09-16T07:51:05.588Z,96924.75
2022-09-16T07:53:33.138Z,96923.69
2022-09-16T07:56:04.259Z,96922.34
2022-09-16T07:58:31.384Z,96917.47
2022-09-16T08:01:03.369Z,96914.56
2022-09-16T08:03:31.852Z,96920.97
2022-09-16T08:06:03.530Z,96926.78
2022-09-16T08:08:31.511Z,96935.97
2022-09-16T08:10:59.547Z,96935.81
2022-09-16T08:13:29.125Z,96936.63
2022-09-16T08:15:59.578Z,96944.56
2022-09-16T08:18:26.022Z,96944.09
2022-09-16T08:20:52.643Z,96956.31
2022-09-16T08:23:19.170Z,96950.97
2022-09-16T08:25:45.724Z,96952.94
2022-09-16T08:28:14.133Z,96948.50
2022-09-16T08:30:41.377Z,96940.56
2022-09-16T08:33:07.859Z,96947.56
2022-09-16T08:35:34.280Z,96947.84
2022-09-16T08:38:00.728Z,96949.72
2022-09-16T08:40:32.384Z,96955.84
2022-09-16T08:43:09.958Z,96956.75
2022-09-16T08:45:49.244Z,96965.53
2022-09-16T08:48:26.452Z,96960.97
2022-09-16T08:50:58.777Z,96959.88
2022-09-16T08:53:50.110Z,96959.44
2022-09-16T08:56:22.790Z,96960.72
2022-09-16T08:58:57.339Z,96957.78
2022-09-16T09:01:35.007Z,96960.88
2022-09-16T09:04:03.075Z,96960.41
2022-09-16T09:06:59.297Z,96968.22
2022-09-16T09:09:50.676Z,96962.47
2022-09-16T09:12:33.251Z,96958.78
2022-09-16T09:15:18.738Z,96958.41
2022-09-16T09:18:07.124Z,96963.50
2022-09-16T09:20:54.302Z,96964.88
2022-09-16T09:23:41.723Z,96956.94
2022-09-16T09:26:40.186Z,96957.56
2022-09-16T09:29:51.334Z,96959.09
2022-09-16T09:32:27.679Z,96949.44
2022-09-16T09:35:21.371Z,96957.31
2022-09-16T09:37:47.722Z,96962.72
2022-09-16T09:40:20.147Z,96955.44
2022-09-16T09:42:52.390Z,96948.06
2022-09-16T09:45:44.223Z,96934.47
2022-09-16T09:48:23.536Z,96940.88
2022-09-16T09:50:52.570Z,96926.81
2022-09-16T09:53:36.516Z,96927.13
2022-09-16T09:56:24.566Z,96932.88
2022-09-16T09:58:53.707Z,96931.56
2022-09-16T10:01:20.770Z,96937.88
2022-09-16T10:03:48.986Z,96938.53
2022-09-16T10:06:15.719Z,96935.22
2022-09-16T10:08:49.174Z,96933.69
2022-09-16T10:11:21.757Z,96924.78
2022-09-16T10:13:59.354Z,96934.28
2022-09-16T10:16:29.705Z,96931.28
2022-09-16T10:19:04.328Z,96930.16
2022-09-16T10:21:45.805Z,96927.53
2022-09-16T10:24:34.117Z,96930.13
2022-09-16T10:27:17.010Z,96927.56
2022-09-16T10:29:43.444Z,96929.63
2022-09-16T10:32:17.148Z,96927.44
2022-09-16T10:34:45.135Z,96925.03
2022-09-16T10:37:13.058Z,96927.72
2022-09-16T10:39:43.177Z,96929.31
2022-09-16T10:42:25.368Z,96921.00
2022-09-16T10:44:55.658Z,96918.03
2022-09-16T10:47:25.963Z,96914.38
2022-09-16T10:49:56.975Z,96916.28
2022-09-16T10:52:29.281Z,96923.63
2022-09-16T10:54:56.633Z,96931.84
2022-09-16T10:57:32.552Z,96933.59
2022-09-16T11:00:11.794Z,96942.09
2022-09-16T11:03:03.270Z,96942.91
2022-09-16T11:05:38.471Z,96938.78
2022-09-16T11:08:19.167Z,96931.16
2022-09-16T11:10:55.256Z,96939.28
2022-09-16T11:13:43.266Z,96947.66
2022-09-16T11:16:34.724Z,96945.53
2022-09-16T11:19:14.174Z,96951.88
2022-09-16T11:22:15.756Z,96947.00
2022-09-16T11:24:50.157Z,96946.56
2022-09-16T11:27:28.441Z,96956.84
2022-09-16T11:30:08.395Z,96954.31
2022-09-16T11:32:50.099Z,96949.94
2022-09-16T11:35:35.449Z,96951.84
2022-09-16T11:38:14.094Z,96938.72
2022-09-16T11:41:03.254Z,96958.16
2022-09-16T11:43:44.896Z,96948.97
2022-09-16T11:46:26.682Z,96939.28
2022-09-16T11:49:14.759Z,96941.59
2022-09-16T11:51:44.180Z,96946.59
2022-09-16T11:54:20.878Z,96946.03
2022-09-16T11:56:50.529Z,96948.19
2022-09-16T11:59:39.870Z,96951.00
2022-09-16T12:02:27.307Z,96946.09
2022-09-16T12:05:02.753Z,96940.25
2022-09-16T12:07:29.453Z,96931.97
2022-09-16T12:10:12.327Z,96926.06
2022-09-16T12:12:44.531Z,96922.25
2022-09-16T12:15:26.550Z,96926.53
2022-09-16T12:18:01.538Z,96921.50
2022-09-16T12:20:35.522Z,96931.47
2022-09-16T12:23:18.890Z,96926.22
2022-09-16T12:25:47.976Z,96923.94
2022-09-16T12:28:56.201Z,96927.81
2022-09-16T12:31:47.828Z,96936.78
2022-09-16T12:34:28.413Z,96942.66
2022-09-16T12:37:03.670Z,96946.38
2022-09-16T12:39:30.070Z,96945.09
2022-09-16T12:42:13.022Z,96928.78
2022-09-16T12:44:47.140Z,96935.91
2022-09-16T12:47:25.691Z,96931.84
2022-09-16T12:50:36.331Z,96936.84
2022-09-16T12:53:21.942Z,96940.88
2022-09-16T12:56:12.150Z,96933.13
2022-09-16T12:58:47.548Z,96940.72
2022-09-16T13:01:25.947Z,96938.44
2022-09-16T13:04:21.455Z,96932.69
2022-09-16T13:06:53.647Z,96934.56
2022-09-16T13:09:24.131Z,96925.53
2022-09-16T13:15:22.215Z,96931.09
2022-09-16T13:17:52.770Z,96938.44
2022-09-16T13:20:29.032Z,96928.69
2022-09-16T13:22:55.381Z,96927.44
2022-09-16T13:25:42.858Z,96941.25
2022-09-16T13:28:32.848Z,96932.41
2022-09-16T13:31:17.554Z,96921.06
2022-09-16T13:34:14.672Z,96930.31
2022-09-16T13:36:41.075Z,96926.38
2022-09-16T13:39:13.570Z,96928.78
2022-09-16T13:41:47.702Z,96922.81
2022-09-16T13:44:33.547Z,96919.16
2022-09-16T13:47:09.115Z,96908.88
2022-09-16T13:49:41.759Z,96919.94
2022-09-16T13:52:13.231Z,96919.84
2022-09-16T13:55:09.414Z,96917.56
2022-09-16T13:57:42.134Z,96916.59
2022-09-16T14:00:32.408Z,96912.75
2022-09-16T14:03:23.592Z,96902.94
2022-09-16T14:06:03.127Z,96901.56
2022-09-16T14:08:32.436Z,96912.88
2022-09-16T14:11:12.198Z,96909.06
2022-09-16T14:13:44.478Z,96912.91
2022-09-16T14:16:24.248Z,96907.97
2022-09-16T14:18:56.630Z,96907.72
2022-09-16T14:21:24.609Z,96919.94
2022-09-16T14:23:51.479Z,96914.38
2022-09-16T14:26:24.059Z,96911.56
2022-09-16T14:28:50.734Z,96908.25
2022-09-16T14:31:24.958Z,96902.88
2022-09-16T14:33:56.698Z,96901.94
2022-09-16T14:36:26.775Z,96905.50
2022-09-16T14:39:03.283Z,96903.06
2022-09-16T14:41:37.774Z,96906.50
2022-09-16T14:44:10.600Z,96901.34
2022-09-16T14:46:46.499Z,96907.94
2022-09-16T14:49:15.228Z,96904.09
2022-09-16T14:51:50.865Z,96905.66
2022-09-16T14:54:19.235Z,96899.88
2022-09-16T14:57:25.108Z,96890.84
2022-09-16T14:59:55.442Z,96895.84
2022-09-16T15:02:29.714Z,96890.03
2022-09-16T15:05:08.086Z,96885.72
2022-09-16T15:07:56.207Z,96884.78
2022-09-16T15:10:39.702Z,96892.78
2022-09-16T15:13:19.762Z,96887.41
2022-09-16T15:15:53.367Z,96891.97
2022-09-16T15:18:32.275Z,96893.13
2022-09-16T15:21:25.319Z,96884.72
2022-09-16T15:23:56.017Z,96884.88
2022-09-16T15:26:42.135Z,96886.72
2022-09-16T15:29:17.632Z,96887.94
2022-09-16T15:31:45.433Z,96883.97
2022-09-16T15:34:21.055Z,96891.16
2022-09-16T15:36:47.422Z,96885.50
2022-09-16T15:39:28.342Z,96896.47
2022-09-16T15:42:14.022Z,96895.41
2022-09-16T15:44:52.518Z,96891.84
2022-09-16T15:47:31.158Z,96892.44
2022-09-16T15:50:17.214Z,96888.75
2022-09-16T15:53:24.134Z,96886.63
2022-09-16T15:56:16.885Z,96887.13
2022-09-16T15:58:47.412Z,96886.44
2022-09-16T16:01:20.934Z,96890.94
2022-09-16T16:03:56.053Z,96892.75
2022-09-16T16:06:44.167Z,96895.41
2022-09-16T16:09:28.915Z,96895.34
2022-09-16T16:11:56.966Z,96900.22
2022-09-16T16:14:24.675Z,96906.19
2022-09-16T16:17:11.619Z,96903.91
2022-09-16T16:19:39.145Z,96908.41
2022-09-16T16:22:07.013Z,96898.47
2022-09-16T16:24:34.178Z,96896.31
2022-09-16T16:27:00.724Z,96903.03
2022-09-16T16:29:27.154Z,96897.22
2022-09-16T16:32:02.766Z,96905.16
2022-09-16T16:34:32.776Z,96911.84
2022-09-16T16:36:59.524Z,96909.03
2022-09-16T16:39:26.022Z,96905.84
2022-09-16T16:41:55.055Z,96908.38
2022-09-16T16:44:23.151Z,96908.84
2022-09-16T16:46:51.521Z,96901.09
2022-09-16T16:49:18.434Z,96910.69
2022-09-16T16:51:44.991Z,96910.22
2022-09-16T16:54:12.999Z,96910.94
2022-09-16T16:56:42.357Z,96904.94
2022-09-16T16:59:09.430Z,96908.19
2022-09-16T17:01:37.235Z,96908.91
2022-09-16T17:04:04.994Z,96910.97
2022-09-16T17:06:32.491Z,96916.97
2022-09-16T17:08:58.915Z,96914.09
2022-09-16T17:11:26.077Z,96907.91
2022-09-16T17:13:57.193Z,96916.22
2022-09-16T17:16:24.958Z,96911.59
2022-09-16T17:18:52.746Z,96916.66
2022-09-16T17:21:21.790Z,96911.34
2022-09-16T17:23:48.622Z,96919.84
2022-09-16T17:26:15.509Z,96916.47
2022-09-16T17:28:45.640Z,96917.59
2022-09-16T17:31:30.404Z,96920.81
2022-09-16T17:33:58.931Z,96928.75
2022-09-16T17:36:26.341Z,96926.44
2022-09-16T17:39:17.829Z,96918.66
2022-09-16T17:41:46.517Z,96918.66
2022-09-16T17:44:14.043Z,96935.38
2022-09-16T17:46:41.799Z,96924.31
2022-09-16T17:49:13.861Z,96928.59
2022-09-16T17:51:40.379Z,96931.97
2022-09-16T17:54:08.688Z,96934.63
2022-09-16T17:56:35.311Z,96935.63
2022-09-16T17:59:01.765Z,96936.41
2022-09-16T18:01:28.319Z,96938.06
2022-09-16T18:03:56.078Z,96939.84
2022-09-16T18:06:25.244Z,96939.53
2022-09-16T18:08:52.355Z,96935.38
2022-09-16T18:11:20.807Z,96938.19
2022-09-16T18:13:48.381Z,96933.47
2022-09-16T18:16:20.181Z,96928.59
2022-09-16T18:18:50.635Z,96936.53
2022-09-16T18:21:19.605Z,96938.97
2022-09-16T18:23:49.675Z,96937.22
2022-09-16T18:26:16.608Z,96944.38
2022-09-16T18:29:08.042Z,96932.09
2022-09-16T18:31:33.023Z,96940.13
2022-09-16T18:33:59.482Z,96938.69
2022-09-16T18:36:27.403Z,96944.56
2022-09-16T18:38:56.999Z,96946.94
2022-09-16T18:41:26.426Z,96938.97
2022-09-16T18:43:58.569Z,96948.03
2022-09-16T18:46:27.891Z,96952.56
2022-09-16T18:48:54.815Z,96945.59
2022-09-16T18:51:38.700Z,96950.53
2022-09-16T18:54:07.973Z,96950.53
2022-09-16T18:56:36.390Z,96954.69
2022-09-16T18:59:23.516Z,96962.09
2022-09-16T19:01:55.552Z,96956.84
2022-09-16T19:04:25.599Z,96959.66
2022-09-16T19:06:54.326Z,96958.59
2022-09-16T19:09:23.483Z,96968.53
2022-09-16T19:11:52.780Z,96965.69
2022-09-16T19:14:22.323Z,96967.59
2022-09-16T19:16:48.750Z,96966.28
2022-09-16T19:19:15.582Z,96956.44
2022-09-16T19:21:43.550Z,96951.00
2022-09-16T19:24:24.075Z,96956.50
2022-09-16T19:26:52.937Z,96950.25
2022-09-16T19:29:19.746Z,96947.09
2022-09-16T19:31:47.783Z,96943.25
2022-09-16T19:34:16.015Z,96936.38
2022-09-16T19:36:42.825Z,96935.69
2022-09-16T19:39:10.315Z,96932.16
2022-09-16T19:41:38.606Z,96935.22
2022-09-16T19:44:08.165Z,96950.50
2022-09-16T19:46:36.625Z,96953.25
2022-09-16T19:49:04.044Z,96944.00
2022-09-16T19:51:30.442Z,96946.88
2022-09-16T19:53:58.406Z,96944.00
2022-09-16T19:56:27.907Z,96945.22
2022-09-16T19:58:55.333Z,96946.53
2022-09-16T20:01:24.185Z,96949.25
2022-09-16T20:03:51.862Z,96948.34
2022-09-16T20:06:21.481Z,96955.47
2022-09-16T20:08:52.539Z,96950.44
2022-09-16T20:11:21.055Z,96940.44
2022-09-16T20:13:55.984Z,96934.31
2022-09-16T20:16:25.546Z,96939.97
2022-09-16T20:18:52.646Z,96941.03
2022-09-16T20:21:24.569Z,96936.13
2022-09-16T20:23:52.251Z,96937.34
2022-09-16T20:26:20.209Z,96943.44
2022-09-16T20:28:52.316Z,96946.72
2022-09-16T20:31:27.749Z,96944.31
2022-09-16T20:33:54.406Z,96950.38
2022-09-16T20:36:23.748Z,96949.06
2022-09-16T20:38:51.070Z,96948.13
2022-09-16T20:41:22.881Z,96950.75
2022-09-16T20:43:49.973Z,96946.03
2022-09-16T20:46:33.722Z,96948.34
2022-09-16T20:49:02.930Z,96949.53
2022-09-16T20:51:31.522Z,96940.53
2022-09-16T20:54:09.758Z,96943.72
2022-09-16T20:56:39.191Z,96955.56
2022-09-16T20:59:07.664Z,96953.16
2022-09-16T21:01:35.527Z,96963.34
2022-09-16T21:04:05.230Z,96956.78
2022-09-16T21:06:33.817Z,96959.09
2022-09-16T21:09:02.298Z,96960.31
2022-09-16T21:11:30.199Z,96972.47
2022-09-16T21:14:01.468Z,96975.22
2022-09-16T21:16:29.988Z,96973.69
2022-09-16T21:18:58.211Z,96981.69
2022-09-16T21:21:26.042Z,96984.28
2022-09-16T21:23:53.639Z,96981.69
2022-09-16T21:26:41.657Z,96985.84
2022-09-16T21:29:13.806Z,96989.69
2022-09-16T21:31:41.537Z,96989.78
2022-09-16T21:34:14.374Z,96999.88
2022-09-16T21:36:41.531Z,97009.31
2022-09-16T21:39:08.624Z,97007.56
2022-09-16T21:41:35.380Z,96997.63
2022-09-16T21:44:03.815Z,97003.41
2022-09-16T21:46:33.583Z,97007.19
2022-09-16T21:49:02.360Z,97011.97
2022-09-16T21:51:35.413Z,97004.19
2022-09-16T21:54:03.706Z,97012.66
2022-09-16T21:56:30.127Z,97006.03
2022-09-16T21:58:57.987Z,97000.53
2022-09-16T22:01:30.323Z,97000.34
2022-09-16T22:04:18.017Z,97003.09
2022-09-16T22:06:45.380Z,97013.34
2022-09-16T22:09:12.483Z,97014.09
2022-09-16T22:11:43.591Z,97018.66
2022-09-16T22:14:11.282Z,97008.91
2022-09-16T22:16:38.736Z,97022.03
2022-09-16T22:19:08.100Z,97019.28
2022-09-16T22:21:37.430Z,97019.09
2022-09-16T22:24:04.610Z,97018.53
2022-09-16T22:26:31.405Z,97022.13
2022-09-16T22:28:58.642Z,97024.56
2022-09-16T22:31:35.983Z,97016.78
2022-09-16T22:34:02.530Z,97025.53
2022-09-16T22:36:34.077Z,97026.38
2022-09-16T22:39:04.878Z,97013.03
2022-09-16T22:41:33.339Z,97020.06
2022-09-16T22:44:00.634Z,97021.94
2022-09-16T22:46:32.949Z,97023.31
2022-09-16T22:49:00.237Z,97024.84
2022-09-16T22:51:27.935Z,97020.38
2022-09-16T22:53:54.872Z,97027.06
2022-09-16T22:56:33.320Z,97021.84
2022-09-16T22:59:01.960Z,97014.25
2022-09-16T23:01:32.043Z,97014.34
2022-09-16T23:04:01.683Z,97006.53
2022-09-16T23:06:30.182Z,96999.53
2022-09-16T23:08:57.217Z,96999.50
2022-09-16T23:11:26.819Z,97003.47
2022-09-16T23:13:54.900Z,97002.25
2022-09-16T23:16:26.978Z,96997.56
2022-09-16T23:18:55.692Z,96998.50
2022-09-16T23:21:22.706Z,97009.09
2022-09-16T23:23:52.062Z,97008.44
2022-09-16T23:26:21.727Z,97013.16
2022-09-16T23:28:52.562Z,97006.72
2022-09-16T23:31:21.261Z,97005.88
2022-09-16T23:33:47.926Z,97011.72
2022-09-16T23:36:15.850Z,97015.66
2022-09-16T23:38:43.017Z,97016.81
2022-09-16T23:41:13.331Z,97018.31
2022-09-16T23:43:41.655Z,97011.97
2022-09-16T23:46:12.801Z,97013.69
2022-09-16T23:48:39.344Z,97018.06
2022-09-16T23:51:07.363Z,97020.00
2022-09-16T23:53:35.106Z,97014.72
2022-09-16T23:56:08.620Z,97018.31
2022-09-16T23:58:35.335Z,97017.13
